CFT2 weather

Wilderman Farm Airport
Blackie, Alberta, Canada

Public forecast

Using degrees Celsius for public forecast. Weather courtesy of forecast.io.

Closest aviation weather report (METAR) to Wilderman Farm Airport

Closest report is Calgary International Airport, 37.6 nm (69.6 km) NNW. Retrieved 2019/12/13 04:00 UTC (54 minutes ago):

CYYC 130400Z 01010KT 3SM BR OVC009 M10/M13 A2977 RMK ST8 SLP150

Closest aviation forecast (TAF) to Wilderman Farm Airport

Closest forecast is Calgary International Airport, 37.6 nm (69.6 km) NNW. Retrieved 2019-12-13 03:21 UTC (2 hours ago):

TAF CYYC 130242Z 1303/1324 36006KT 4SM BR SCT004 OVC008 TEMPO 1303/1317 11/2SM BR OVC004 BECMG 1313/1315 12006KT FM131700 16006KT 5SM -SN BR OVC008 TEMPO 1317/1321 P6SM NSW SCT008 OVC012 FM132100 17006KT P6SM OVC012 TEMPO 1322/1324 4SM -SHSN OVC010 RMK NXT FCST BY 130600Z